sensor_id;sensor_type;location;lat;lon;timestamp;P1;durP1;ratioP1;P2;durP2;ratioP2
30147;SDS011;16960;49.404;8.248;2023-06-10T00:00:48;10.90;;;10.00;;
30147;SDS011;16960;49.404;8.248;2023-06-10T00:03:17;10.77;;;9.77;;
30147;SDS011;16960;49.404;8.248;2023-06-10T00:05:46;11.47;;;10.30;;
30147;SDS011;16960;49.404;8.248;2023-06-10T00:08:12;10.60;;;9.70;;
30147;SDS011;16960;49.404;8.248;2023-06-10T00:10:40;10.50;;;9.60;;
30147;SDS011;16960;49.404;8.248;2023-06-10T00:13:07;10.20;;;9.40;;
30147;SDS011;16960;49.404;8.248;2023-06-10T00:15:35;13.40;;;10.27;;
30147;SDS011;16960;49.404;8.248;2023-06-10T00:18:02;10.70;;;9.90;;
30147;SDS011;16960;49.404;8.248;2023-06-10T00:20:30;10.70;;;9.87;;
30147;SDS011;16960;49.404;8.248;2023-06-10T00:22:59;11.73;;;10.53;;
30147;SDS011;16960;49.404;8.248;2023-06-10T00:25:26;9.77;;;8.77;;
30147;SDS011;16960;49.404;8.248;2023-06-10T00:27:53;11.60;;;10.60;;
30147;SDS011;16960;49.404;8.248;2023-06-10T00:30:21;10.93;;;10.03;;
30147;SDS011;16960;49.404;8.248;2023-06-10T00:32:47;11.27;;;10.43;;
30147;SDS011;16960;49.404;8.248;2023-06-10T00:35:14;11.77;;;10.70;;
30147;SDS011;16960;49.404;8.248;2023-06-10T00:37:41;11.90;;;10.27;;
30147;SDS011;16960;49.404;8.248;2023-06-10T00:40:10;10.83;;;9.93;;
30147;SDS011;16960;49.404;8.248;2023-06-10T00:42:38;11.67;;;10.77;;
30147;SDS011;16960;49.404;8.248;2023-06-10T00:45:05;11.03;;;10.07;;
30147;SDS011;16960;49.404;8.248;2023-06-10T00:47:33;10.20;;;9.40;;
30147;SDS011;16960;49.404;8.248;2023-06-10T00:50:00;11.20;;;10.13;;
30147;SDS011;16960;49.404;8.248;2023-06-10T00:52:28;10.80;;;9.93;;
30147;SDS011;16960;49.404;8.248;2023-06-10T00:54:55;10.00;;;9.20;;
30147;SDS011;16960;49.404;8.248;2023-06-10T00:57:25;9.70;;;8.90;;
30147;SDS011;16960;49.404;8.248;2023-06-10T00:59:52;10.50;;;9.57;;
30147;SDS011;16960;49.404;8.248;2023-06-10T01:02:20;11.50;;;10.37;;
30147;SDS011;16960;49.404;8.248;2023-06-10T01:04:47;11.50;;;10.50;;
30147;SDS011;16960;49.404;8.248;2023-06-10T01:07:15;11.20;;;10.20;;
30147;SDS011;16960;49.404;8.248;2023-06-10T01:09:49;10.93;;;10.07;;
30147;SDS011;16960;49.404;8.248;2023-06-10T01:12:26;10.53;;;9.63;;
30147;SDS011;16960;49.404;8.248;2023-06-10T01:14:58;12.10;;;11.10;;
30147;SDS011;16960;49.404;8.248;2023-06-10T01:17:26;10.27;;;9.47;;
30147;SDS011;16960;49.404;8.248;2023-06-10T01:19:55;10.97;;;10.07;;
30147;SDS011;16960;49.404;8.248;2023-06-10T01:22:26;11.50;;;10.50;;
30147;SDS011;16960;49.404;8.248;2023-06-10T01:24:53;11.23;;;10.23;;
30147;SDS011;16960;49.404;8.248;2023-06-10T01:27:23;12.30;;;11.30;;
30147;SDS011;16960;49.404;8.248;2023-06-10T01:29:54;10.90;;;10.00;;
30147;SDS011;16960;49.404;8.248;2023-06-10T01:32:29;10.93;;;10.00;;
30147;SDS011;16960;49.404;8.248;2023-06-10T01:35:01;10.97;;;10.17;;
30147;SDS011;16960;49.404;8.248;2023-06-10T01:37:30;10.83;;;10.00;;
30147;SDS011;16960;49.404;8.248;2023-06-10T01:39:58;10.93;;;10.13;;
30147;SDS011;16960;49.404;8.248;2023-06-10T01:42:26;11.23;;;10.33;;
30147;SDS011;16960;49.404;8.248;2023-06-10T01:44:54;10.67;;;9.87;;
30147;SDS011;16960;49.404;8.248;2023-06-10T01:47:21;11.33;;;10.50;;
30147;SDS011;16960;49.404;8.248;2023-06-10T01:49:48;10.93;;;10.03;;
30147;SDS011;16960;49.404;8.248;2023-06-10T01:52:15;11.23;;;10.33;;
30147;SDS011;16960;49.404;8.248;2023-06-10T01:54:43;11.40;;;10.47;;
30147;SDS011;16960;49.404;8.248;2023-06-10T01:57:10;10.60;;;9.70;;
30147;SDS011;16960;49.404;8.248;2023-06-10T01:59:37;10.10;;;9.20;;
30147;SDS011;16960;49.404;8.248;2023-06-10T02:02:05;10.67;;;9.87;;
30147;SDS011;16960;49.404;8.248;2023-06-10T02:04:32;10.87;;;9.90;;
30147;SDS011;16960;49.404;8.248;2023-06-10T02:06:58;13.57;;;10.33;;
30147;SDS011;16960;49.404;8.248;2023-06-10T02:09:29;10.20;;;9.20;;
30147;SDS011;16960;49.404;8.248;2023-06-10T02:11:57;10.80;;;9.93;;
30147;SDS011;16960;49.404;8.248;2023-06-10T02:14:24;11.07;;;10.03;;
30147;SDS011;16960;49.404;8.248;2023-06-10T02:16:51;11.40;;;10.50;;
30147;SDS011;16960;49.404;8.248;2023-06-10T02:19:21;10.83;;;10.00;;
30147;SDS011;16960;49.404;8.248;2023-06-10T02:21:48;10.17;;;9.37;;
30147;SDS011;16960;49.404;8.248;2023-06-10T02:24:15;10.90;;;10.10;;
30147;SDS011;16960;49.404;8.248;2023-06-10T02:26:42;10.90;;;10.00;;
30147;SDS011;16960;49.404;8.248;2023-06-10T02:29:11;11.40;;;10.30;;
30147;SDS011;16960;49.404;8.248;2023-06-10T02:31:38;10.70;;;9.73;;
30147;SDS011;16960;49.404;8.248;2023-06-10T02:34:06;10.50;;;9.53;;
30147;SDS011;16960;49.404;8.248;2023-06-10T02:36:33;11.07;;;10.17;;
30147;SDS011;16960;49.404;8.248;2023-06-10T02:39:01;11.30;;;10.40;;
30147;SDS011;16960;49.404;8.248;2023-06-10T02:41:29;11.23;;;10.10;;
30147;SDS011;16960;49.404;8.248;2023-06-10T02:43:56;11.33;;;10.23;;
30147;SDS011;16960;49.404;8.248;2023-06-10T02:46:24;11.13;;;10.23;;
30147;SDS011;16960;49.404;8.248;2023-06-10T02:48:51;10.80;;;10.10;;
30147;SDS011;16960;49.404;8.248;2023-06-10T02:51:18;10.93;;;10.03;;
30147;SDS011;16960;49.404;8.248;2023-06-10T02:53:45;10.40;;;9.50;;
30147;SDS011;16960;49.404;8.248;2023-06-10T02:56:13;10.77;;;9.97;;
30147;SDS011;16960;49.404;8.248;2023-06-10T02:58:41;10.50;;;9.70;;
30147;SDS011;16960;49.404;8.248;2023-06-10T03:01:08;11.80;;;10.80;;
30147;SDS011;16960;49.404;8.248;2023-06-10T03:03:36;10.67;;;9.70;;
30147;SDS011;16960;49.404;8.248;2023-06-10T03:06:05;10.53;;;9.63;;
30147;SDS011;16960;49.404;8.248;2023-06-10T03:08:33;10.70;;;9.70;;
30147;SDS011;16960;49.404;8.248;2023-06-10T03:11:00;10.10;;;9.30;;
30147;SDS011;16960;49.404;8.248;2023-06-10T03:13:27;10.67;;;9.87;;
30147;SDS011;16960;49.404;8.248;2023-06-10T03:15:54;10.33;;;9.40;;
30147;SDS011;16960;49.404;8.248;2023-06-10T03:18:21;11.17;;;10.17;;
30147;SDS011;16960;49.404;8.248;2023-06-10T03:20:53;10.83;;;10.03;;
30147;SDS011;16960;49.404;8.248;2023-06-10T03:23:20;10.07;;;9.27;;
30147;SDS011;16960;49.404;8.248;2023-06-10T03:25:47;10.23;;;9.33;;
30147;SDS011;16960;49.404;8.248;2023-06-10T03:28:14;10.50;;;9.70;;
30147;SDS011;16960;49.404;8.248;2023-06-10T03:30:41;9.87;;;9.13;;
30147;SDS011;16960;49.404;8.248;2023-06-10T03:33:07;10.40;;;9.60;;
30147;SDS011;16960;49.404;8.248;2023-06-10T03:35:34;10.37;;;9.67;;
30147;SDS011;16960;49.404;8.248;2023-06-10T03:38:03;11.03;;;10.03;;
30147;SDS011;16960;49.404;8.248;2023-06-10T03:40:30;9.93;;;9.23;;
30147;SDS011;16960;49.404;8.248;2023-06-10T03:42:57;11.30;;;10.43;;
30147;SDS011;16960;49.404;8.248;2023-06-10T03:45:23;10.40;;;9.50;;
30147;SDS011;16960;49.404;8.248;2023-06-10T03:47:53;9.77;;;9.07;;
30147;SDS011;16960;49.404;8.248;2023-06-10T03:50:20;10.20;;;9.30;;
30147;SDS011;16960;49.404;8.248;2023-06-10T03:52:49;11.40;;;10.30;;
30147;SDS011;16960;49.404;8.248;2023-06-10T03:55:17;10.87;;;9.93;;
30147;SDS011;16960;49.404;8.248;2023-06-10T03:57:46;10.50;;;9.70;;
30147;SDS011;16960;49.404;8.248;2023-06-10T04:00:14;10.33;;;9.47;;
30147;SDS011;16960;49.404;8.248;2023-06-10T04:02:42;10.40;;;9.53;;
30147;SDS011;16960;49.404;8.248;2023-06-10T04:05:12;9.80;;;9.00;;
30147;SDS011;16960;49.404;8.248;2023-06-10T04:07:40;10.37;;;9.60;;
30147;SDS011;16960;49.404;8.248;2023-06-10T04:10:08;10.53;;;9.63;;
30147;SDS011;16960;49.404;8.248;2023-06-10T04:12:36;10.63;;;9.83;;
30147;SDS011;16960;49.404;8.248;2023-06-10T04:15:04;10.03;;;9.20;;
30147;SDS011;16960;49.404;8.248;2023-06-10T04:17:32;9.90;;;9.20;;
30147;SDS011;16960;49.404;8.248;2023-06-10T04:19:59;11.20;;;10.10;;
30147;SDS011;16960;49.404;8.248;2023-06-10T04:22:28;10.23;;;9.40;;
30147;SDS011;16960;49.404;8.248;2023-06-10T04:24:55;10.37;;;9.50;;
30147;SDS011;16960;49.404;8.248;2023-06-10T04:27:22;9.77;;;8.97;;
30147;SDS011;16960;49.404;8.248;2023-06-10T04:29:50;10.27;;;9.27;;
30147;SDS011;16960;49.404;8.248;2023-06-10T04:32:17;10.40;;;9.30;;
30147;SDS011;16960;49.404;8.248;2023-06-10T04:34:44;10.20;;;9.30;;
30147;SDS011;16960;49.404;8.248;2023-06-10T04:37:11;10.50;;;9.70;;
30147;SDS011;16960;49.404;8.248;2023-06-10T04:39:38;10.23;;;9.43;;
30147;SDS011;16960;49.404;8.248;2023-06-10T04:42:06;10.30;;;9.40;;
30147;SDS011;16960;49.404;8.248;2023-06-10T04:44:33;10.30;;;9.50;;
30147;SDS011;16960;49.404;8.248;2023-06-10T04:47:02;10.00;;;9.10;;
30147;SDS011;16960;49.404;8.248;2023-06-10T04:49:29;9.93;;;9.20;;
30147;SDS011;16960;49.404;8.248;2023-06-10T04:51:56;9.97;;;9.10;;
30147;SDS011;16960;49.404;8.248;2023-06-10T04:54:25;9.50;;;8.80;;
30147;SDS011;16960;49.404;8.248;2023-06-10T04:56:51;10.87;;;10.00;;
30147;SDS011;16960;49.404;8.248;2023-06-10T04:59:25;10.50;;;9.70;;
30147;SDS011;16960;49.404;8.248;2023-06-10T05:01:57;11.90;;;10.80;;
30147;SDS011;16960;49.404;8.248;2023-06-10T05:04:25;10.90;;;9.90;;
30147;SDS011;16960;49.404;8.248;2023-06-10T05:06:52;10.27;;;9.37;;
30147;SDS011;16960;49.404;8.248;2023-06-10T05:09:19;10.40;;;9.60;;
30147;SDS011;16960;49.404;8.248;2023-06-10T05:11:46;10.73;;;9.83;;
30147;SDS011;16960;49.404;8.248;2023-06-10T05:14:13;10.57;;;9.60;;
30147;SDS011;16960;49.404;8.248;2023-06-10T05:16:41;10.47;;;9.70;;
30147;SDS011;16960;49.404;8.248;2023-06-10T05:19:08;9.57;;;8.83;;
30147;SDS011;16960;49.404;8.248;2023-06-10T05:21:38;10.43;;;9.47;;
30147;SDS011;16960;49.404;8.248;2023-06-10T05:24:05;12.13;;;11.03;;
30147;SDS011;16960;49.404;8.248;2023-06-10T05:26:32;10.53;;;9.73;;
30147;SDS011;16960;49.404;8.248;2023-06-10T05:29:02;10.50;;;9.57;;
30147;SDS011;16960;49.404;8.248;2023-06-10T05:31:29;11.47;;;10.37;;
30147;SDS011;16960;49.404;8.248;2023-06-10T05:33:56;9.40;;;8.60;;
30147;SDS011;16960;49.404;8.248;2023-06-10T05:36:23;10.57;;;9.70;;
30147;SDS011;16960;49.404;8.248;2023-06-10T05:38:53;11.13;;;10.20;;
30147;SDS011;16960;49.404;8.248;2023-06-10T05:41:20;11.10;;;10.20;;
30147;SDS011;16960;49.404;8.248;2023-06-10T05:43:47;10.10;;;9.30;;
30147;SDS011;16960;49.404;8.248;2023-06-10T05:46:14;11.20;;;10.20;;
30147;SDS011;16960;49.404;8.248;2023-06-10T05:48:41;9.70;;;8.90;;
30147;SDS011;16960;49.404;8.248;2023-06-10T05:51:07;11.00;;;10.00;;
30147;SDS011;16960;49.404;8.248;2023-06-10T05:53:35;10.97;;;9.97;;
30147;SDS011;16960;49.404;8.248;2023-06-10T05:56:04;10.17;;;9.00;;
30147;SDS011;16960;49.404;8.248;2023-06-10T05:58:31;10.63;;;9.70;;
30147;SDS011;16960;49.404;8.248;2023-06-10T06:00:58;10.93;;;9.43;;
30147;SDS011;16960;49.404;8.248;2023-06-10T06:03:26;11.20;;;10.17;;
30147;SDS011;16960;49.404;8.248;2023-06-10T06:05:53;10.67;;;9.47;;
30147;SDS011;16960;49.404;8.248;2023-06-10T06:08:20;9.93;;;9.00;;
30147;SDS011;16960;49.404;8.248;2023-06-10T06:10:47;9.97;;;9.17;;
30147;SDS011;16960;49.404;8.248;2023-06-10T06:13:15;10.53;;;9.60;;
30147;SDS011;16960;49.404;8.248;2023-06-10T06:15:42;10.00;;;9.00;;
30147;SDS011;16960;49.404;8.248;2023-06-10T06:18:09;10.07;;;9.17;;
30147;SDS011;16960;49.404;8.248;2023-06-10T06:20:36;10.70;;;9.80;;
30147;SDS011;16960;49.404;8.248;2023-06-10T06:23:03;10.63;;;9.73;;
30147;SDS011;16960;49.404;8.248;2023-06-10T06:25:30;10.40;;;9.50;;
30147;SDS011;16960;49.404;8.248;2023-06-10T06:27:57;10.43;;;9.53;;
30147;SDS011;16960;49.404;8.248;2023-06-10T06:30:25;10.87;;;9.97;;
30147;SDS011;16960;49.404;8.248;2023-06-10T06:32:52;9.60;;;8.80;;
30147;SDS011;16960;49.404;8.248;2023-06-10T06:35:19;11.60;;;10.53;;
30147;SDS011;16960;49.404;8.248;2023-06-10T06:37:46;11.03;;;9.40;;
30147;SDS011;16960;49.404;8.248;2023-06-10T06:40:13;11.17;;;9.83;;
30147;SDS011;16960;49.404;8.248;2023-06-10T06:42:40;10.53;;;9.63;;
30147;SDS011;16960;49.404;8.248;2023-06-10T06:45:07;10.77;;;9.87;;
30147;SDS011;16960;49.404;8.248;2023-06-10T06:47:36;10.30;;;9.30;;
30147;SDS011;16960;49.404;8.248;2023-06-10T06:50:03;10.30;;;9.50;;
30147;SDS011;16960;49.404;8.248;2023-06-10T06:52:30;11.57;;;10.47;;
30147;SDS011;16960;49.404;8.248;2023-06-10T06:54:57;10.53;;;9.20;;
30147;SDS011;16960;49.404;8.248;2023-06-10T06:57:24;10.73;;;9.63;;
30147;SDS011;16960;49.404;8.248;2023-06-10T06:59:51;10.80;;;9.80;;
30147;SDS011;16960;49.404;8.248;2023-06-10T07:02:18;15.23;;;11.10;;
30147;SDS011;16960;49.404;8.248;2023-06-10T07:04:46;11.10;;;10.10;;
30147;SDS011;16960;49.404;8.248;2023-06-10T07:07:14;10.73;;;9.57;;
30147;SDS011;16960;49.404;8.248;2023-06-10T07:09:41;13.00;;;10.60;;
30147;SDS011;16960;49.404;8.248;2023-06-10T07:12:09;11.80;;;10.60;;
30147;SDS011;16960;49.404;8.248;2023-06-10T07:14:36;10.23;;;9.33;;
30147;SDS011;16960;49.404;8.248;2023-06-10T07:17:03;10.07;;;9.13;;
30147;SDS011;16960;49.404;8.248;2023-06-10T07:19:30;10.47;;;9.57;;
30147;SDS011;16960;49.404;8.248;2023-06-10T07:21:58;10.60;;;9.53;;
30147;SDS011;16960;49.404;8.248;2023-06-10T07:24:25;10.10;;;9.30;;
30147;SDS011;16960;49.404;8.248;2023-06-10T07:26:52;9.93;;;9.13;;
30147;SDS011;16960;49.404;8.248;2023-06-10T07:29:19;11.27;;;10.17;;
30147;SDS011;16960;49.404;8.248;2023-06-10T07:31:46;11.10;;;10.10;;
30147;SDS011;16960;49.404;8.248;2023-06-10T07:34:12;10.33;;;9.60;;
30147;SDS011;16960;49.404;8.248;2023-06-10T07:36:39;10.47;;;9.57;;
30147;SDS011;16960;49.404;8.248;2023-06-10T07:39:08;10.57;;;9.67;;
30147;SDS011;16960;49.404;8.248;2023-06-10T07:41:35;11.30;;;10.30;;
30147;SDS011;16960;49.404;8.248;2023-06-10T07:44:02;11.00;;;9.97;;
30147;SDS011;16960;49.404;8.248;2023-06-10T07:46:29;9.83;;;8.90;;
30147;SDS011;16960;49.404;8.248;2023-06-10T07:48:56;9.90;;;8.90;;
30147;SDS011;16960;49.404;8.248;2023-06-10T07:51:23;9.67;;;8.70;;
30147;SDS011;16960;49.404;8.248;2023-06-10T07:53:50;8.90;;;8.10;;
30147;SDS011;16960;49.404;8.248;2023-06-10T07:56:18;9.83;;;9.00;;
30147;SDS011;16960;49.404;8.248;2023-06-10T07:58:46;9.53;;;8.70;;
30147;SDS011;16960;49.404;8.248;2023-06-10T08:01:13;10.70;;;8.00;;
30147;SDS011;16960;49.404;8.248;2023-06-10T08:03:40;7.43;;;6.90;;
30147;SDS011;16960;49.404;8.248;2023-06-10T08:06:08;8.93;;;8.13;;
30147;SDS011;16960;49.404;8.248;2023-06-10T08:08:36;8.47;;;7.77;;
30147;SDS011;16960;49.404;8.248;2023-06-10T08:11:07;8.20;;;7.40;;
30147;SDS011;16960;49.404;8.248;2023-06-10T08:13:35;8.53;;;7.80;;
30147;SDS011;16960;49.404;8.248;2023-06-10T08:16:02;8.13;;;7.43;;
30147;SDS011;16960;49.404;8.248;2023-06-10T08:18:30;8.43;;;7.63;;
30147;SDS011;16960;49.404;8.248;2023-06-10T08:20:57;8.20;;;7.40;;
30147;SDS011;16960;49.404;8.248;2023-06-10T08:23:23;9.00;;;8.17;;
30147;SDS011;16960;49.404;8.248;2023-06-10T08:25:50;7.83;;;6.87;;
30147;SDS011;16960;49.404;8.248;2023-06-10T08:28:18;8.10;;;7.40;;
30147;SDS011;16960;49.404;8.248;2023-06-10T08:30:46;8.67;;;7.83;;
30147;SDS011;16960;49.404;8.248;2023-06-10T08:33:13;8.40;;;7.60;;
30147;SDS011;16960;49.404;8.248;2023-06-10T08:35:40;7.80;;;7.10;;
30147;SDS011;16960;49.404;8.248;2023-06-10T08:38:07;6.97;;;6.37;;
30147;SDS011;16960;49.404;8.248;2023-06-10T08:40:34;8.23;;;7.43;;
30147;SDS011;16960;49.404;8.248;2023-06-10T08:43:04;8.03;;;7.33;;
30147;SDS011;16960;49.404;8.248;2023-06-10T08:45:34;8.23;;;7.53;;
30147;SDS011;16960;49.404;8.248;2023-06-10T08:48:03;6.80;;;6.30;;
30147;SDS011;16960;49.404;8.248;2023-06-10T08:50:32;7.07;;;6.60;;
30147;SDS011;16960;49.404;8.248;2023-06-10T08:53:02;8.13;;;7.43;;
30147;SDS011;16960;49.404;8.248;2023-06-10T08:55:31;7.83;;;7.13;;
30147;SDS011;16960;49.404;8.248;2023-06-10T08:57:59;8.40;;;6.83;;
30147;SDS011;16960;49.404;8.248;2023-06-10T09:00:27;8.03;;;7.33;;
30147;SDS011;16960;49.404;8.248;2023-06-10T09:02:55;7.20;;;6.50;;
30147;SDS011;16960;49.404;8.248;2023-06-10T09:05:24;7.83;;;7.13;;
30147;SDS011;16960;49.404;8.248;2023-06-10T09:07:53;7.60;;;6.90;;
30147;SDS011;16960;49.404;8.248;2023-06-10T09:10:20;7.43;;;6.83;;
30147;SDS011;16960;49.404;8.248;2023-06-10T09:12:47;8.20;;;7.40;;
30147;SDS011;16960;49.404;8.248;2023-06-10T09:15:15;7.63;;;6.97;;
30147;SDS011;16960;49.404;8.248;2023-06-10T09:17:42;7.27;;;6.67;;
30147;SDS011;16960;49.404;8.248;2023-06-10T09:20:10;6.80;;;6.20;;
30147;SDS011;16960;49.404;8.248;2023-06-10T09:22:39;7.37;;;6.87;;
30147;SDS011;16960;49.404;8.248;2023-06-10T09:25:08;8.10;;;7.50;;
30147;SDS011;16960;49.404;8.248;2023-06-10T09:27:43;6.90;;;6.40;;
30147;SDS011;16960;49.404;8.248;2023-06-10T09:30:23;7.13;;;6.63;;
30147;SDS011;16960;49.404;8.248;2023-06-10T09:32:52;6.90;;;6.40;;
30147;SDS011;16960;49.404;8.248;2023-06-10T09:35:21;7.20;;;6.70;;
30147;SDS011;16960;49.404;8.248;2023-06-10T09:37:51;6.43;;;6.00;;
30147;SDS011;16960;49.404;8.248;2023-06-10T09:40:18;6.00;;;5.60;;
30147;SDS011;16960;49.404;8.248;2023-06-10T09:42:46;6.97;;;6.37;;
30147;SDS011;16960;49.404;8.248;2023-06-10T09:45:18;6.50;;;5.97;;
30147;SDS011;16960;49.404;8.248;2023-06-10T09:47:45;7.27;;;6.70;;
30147;SDS011;16960;49.404;8.248;2023-06-10T09:50:12;7.10;;;6.60;;
30147;SDS011;16960;49.404;8.248;2023-06-10T09:52:39;7.13;;;6.60;;
30147;SDS011;16960;49.404;8.248;2023-06-10T09:55:09;6.63;;;6.13;;
30147;SDS011;16960;49.404;8.248;2023-06-10T09:57:36;7.40;;;6.80;;
30147;SDS011;16960;49.404;8.248;2023-06-10T10:00:05;6.40;;;5.90;;
30147;SDS011;16960;49.404;8.248;2023-06-10T10:02:33;6.80;;;6.20;;
30147;SDS011;16960;49.404;8.248;2023-06-10T10:05:12;7.27;;;6.67;;
30147;SDS011;16960;49.404;8.248;2023-06-10T10:07:40;6.70;;;6.20;;
30147;SDS011;16960;49.404;8.248;2023-06-10T10:10:09;6.70;;;6.20;;
30147;SDS011;16960;49.404;8.248;2023-06-10T10:12:37;5.70;;;5.20;;
30147;SDS011;16960;49.404;8.248;2023-06-10T10:15:05;6.03;;;5.53;;
30147;SDS011;16960;49.404;8.248;2023-06-10T10:17:34;5.87;;;5.43;;
30147;SDS011;16960;49.404;8.248;2023-06-10T10:20:04;6.93;;;6.43;;
30147;SDS011;16960;49.404;8.248;2023-06-10T10:22:35;5.53;;;5.13;;
30147;SDS011;16960;49.404;8.248;2023-06-10T10:25:05;6.07;;;5.60;;
30147;SDS011;16960;49.404;8.248;2023-06-10T10:27:41;5.80;;;5.40;;
30147;SDS011;16960;49.404;8.248;2023-06-10T10:30:11;6.40;;;5.90;;
30147;SDS011;16960;49.404;8.248;2023-06-10T10:32:42;6.40;;;5.90;;
30147;SDS011;16960;49.404;8.248;2023-06-10T10:35:17;6.57;;;5.87;;
30147;SDS011;16960;49.404;8.248;2023-06-10T10:37:48;6.43;;;5.93;;
30147;SDS011;16960;49.404;8.248;2023-06-10T10:40:16;5.60;;;5.20;;
30147;SDS011;16960;49.404;8.248;2023-06-10T10:42:44;6.10;;;5.70;;
30147;SDS011;16960;49.404;8.248;2023-06-10T10:45:11;5.77;;;5.37;;
30147;SDS011;16960;49.404;8.248;2023-06-10T10:47:38;6.40;;;5.80;;
30147;SDS011;16960;49.404;8.248;2023-06-10T10:50:12;6.03;;;5.53;;
30147;SDS011;16960;49.404;8.248;2023-06-10T10:52:51;6.13;;;5.70;;
30147;SDS011;16960;49.404;8.248;2023-06-10T10:55:21;6.07;;;5.67;;
30147;SDS011;16960;49.404;8.248;2023-06-10T10:57:54;5.70;;;5.30;;
30147;SDS011;16960;49.404;8.248;2023-06-10T11:00:29;6.57;;;5.97;;
30147;SDS011;16960;49.404;8.248;2023-06-10T11:03:00;6.07;;;5.67;;
30147;SDS011;16960;49.404;8.248;2023-06-10T11:05:35;6.00;;;5.60;;
30147;SDS011;16960;49.404;8.248;2023-06-10T11:08:04;6.80;;;6.30;;
30147;SDS011;16960;49.404;8.248;2023-06-10T11:10:35;6.37;;;5.83;;
30147;SDS011;16960;49.404;8.248;2023-06-10T11:13:06;6.10;;;5.60;;
30147;SDS011;16960;49.404;8.248;2023-06-10T11:15:37;6.07;;;5.57;;
30147;SDS011;16960;49.404;8.248;2023-06-10T11:18:10;5.40;;;5.00;;
30147;SDS011;16960;49.404;8.248;2023-06-10T11:20:42;5.70;;;5.30;;
30147;SDS011;16960;49.404;8.248;2023-06-10T11:23:26;6.00;;;5.60;;
30147;SDS011;16960;49.404;8.248;2023-06-10T11:26:17;5.40;;;5.00;;
30147;SDS011;16960;49.404;8.248;2023-06-10T11:29:02;5.63;;;5.00;;
30147;SDS011;16960;49.404;8.248;2023-06-10T11:31:31;5.60;;;5.20;;
30147;SDS011;16960;49.404;8.248;2023-06-10T11:33:59;5.43;;;5.03;;
30147;SDS011;16960;49.404;8.248;2023-06-10T11:36:28;6.13;;;5.63;;
30147;SDS011;16960;49.404;8.248;2023-06-10T11:38:56;5.53;;;5.10;;
30147;SDS011;16960;49.404;8.248;2023-06-10T11:41:25;5.57;;;5.17;;
30147;SDS011;16960;49.404;8.248;2023-06-10T11:43:54;5.17;;;4.77;;
30147;SDS011;16960;49.404;8.248;2023-06-10T11:46:21;4.97;;;4.60;;
30147;SDS011;16960;49.404;8.248;2023-06-10T11:48:49;5.50;;;5.10;;
30147;SDS011;16960;49.404;8.248;2023-06-10T11:51:16;5.90;;;5.40;;
30147;SDS011;16960;49.404;8.248;2023-06-10T11:53:43;5.57;;;5.17;;
30147;SDS011;16960;49.404;8.248;2023-06-10T11:56:11;5.20;;;4.80;;
30147;SDS011;16960;49.404;8.248;2023-06-10T11:58:39;5.43;;;4.80;;
30147;SDS011;16960;49.404;8.248;2023-06-10T12:01:11;5.70;;;5.30;;
30147;SDS011;16960;49.404;8.248;2023-06-10T12:03:45;4.50;;;4.20;;
30147;SDS011;16960;49.404;8.248;2023-06-10T12:06:12;5.67;;;5.27;;
30147;SDS011;16960;49.404;8.248;2023-06-10T12:08:41;5.90;;;5.40;;
30147;SDS011;16960;49.404;8.248;2023-06-10T12:11:08;5.30;;;4.80;;
30147;SDS011;16960;49.404;8.248;2023-06-10T12:13:36;5.73;;;5.33;;
30147;SDS011;16960;49.404;8.248;2023-06-10T12:16:08;5.53;;;5.13;;
30147;SDS011;16960;49.404;8.248;2023-06-10T12:18:35;5.30;;;4.90;;
30147;SDS011;16960;49.404;8.248;2023-06-10T12:21:03;5.50;;;5.10;;
30147;SDS011;16960;49.404;8.248;2023-06-10T12:26:34;7.10;;;6.40;;
30147;SDS011;16960;49.404;8.248;2023-06-10T12:29:02;4.73;;;4.33;;
30147;SDS011;16960;49.404;8.248;2023-06-10T12:31:53;5.50;;;5.10;;
30147;SDS011;16960;49.404;8.248;2023-06-10T12:34:28;5.57;;;5.10;;
30147;SDS011;16960;49.404;8.248;2023-06-10T12:36:55;5.87;;;5.40;;
30147;SDS011;16960;49.404;8.248;2023-06-10T12:39:22;5.30;;;4.90;;
30147;SDS011;16960;49.404;8.248;2023-06-10T12:41:50;5.20;;;4.80;;
30147;SDS011;16960;49.404;8.248;2023-06-10T12:44:18;5.50;;;5.10;;
30147;SDS011;16960;49.404;8.248;2023-06-10T12:46:55;5.00;;;4.60;;
30147;SDS011;16960;49.404;8.248;2023-06-10T12:49:22;5.73;;;5.33;;
30147;SDS011;16960;49.404;8.248;2023-06-10T12:51:50;4.93;;;4.60;;
30147;SDS011;16960;49.404;8.248;2023-06-10T12:54:17;5.20;;;4.70;;
30147;SDS011;16960;49.404;8.248;2023-06-10T12:56:43;5.67;;;5.23;;
30147;SDS011;16960;49.404;8.248;2023-06-10T12:59:10;4.97;;;4.57;;
30147;SDS011;16960;49.404;8.248;2023-06-10T13:01:37;5.60;;;5.10;;
30147;SDS011;16960;49.404;8.248;2023-06-10T13:04:06;4.60;;;4.30;;
30147;SDS011;16960;49.404;8.248;2023-06-10T13:06:33;5.07;;;4.67;;
30147;SDS011;16960;49.404;8.248;2023-06-10T13:09:04;4.97;;;4.57;;
30147;SDS011;16960;49.404;8.248;2023-06-10T13:11:32;5.23;;;4.80;;
30147;SDS011;16960;49.404;8.248;2023-06-10T13:14:00;4.80;;;4.40;;
30147;SDS011;16960;49.404;8.248;2023-06-10T13:16:27;5.00;;;4.60;;
30147;SDS011;16960;49.404;8.248;2023-06-10T13:18:55;5.00;;;4.70;;
30147;SDS011;16960;49.404;8.248;2023-06-10T13:21:23;4.90;;;4.50;;
30147;SDS011;16960;49.404;8.248;2023-06-10T13:23:50;5.87;;;4.73;;
30147;SDS011;16960;49.404;8.248;2023-06-10T13:26:17;5.13;;;4.73;;
30147;SDS011;16960;49.404;8.248;2023-06-10T13:28:44;4.47;;;4.10;;
30147;SDS011;16960;49.404;8.248;2023-06-10T13:31:11;4.57;;;4.17;;
30147;SDS011;16960;49.404;8.248;2023-06-10T13:33:38;4.90;;;4.60;;
30147;SDS011;16960;49.404;8.248;2023-06-10T13:36:05;4.70;;;4.40;;
30147;SDS011;16960;49.404;8.248;2023-06-10T13:38:33;5.17;;;4.77;;
30147;SDS011;16960;49.404;8.248;2023-06-10T13:41:00;4.93;;;4.53;;
30147;SDS011;16960;49.404;8.248;2023-06-10T13:43:27;4.20;;;3.90;;
30147;SDS011;16960;49.404;8.248;2023-06-10T13:45:55;4.70;;;4.30;;
30147;SDS011;16960;49.404;8.248;2023-06-10T13:48:22;5.37;;;4.97;;
30147;SDS011;16960;49.404;8.248;2023-06-10T13:50:49;4.77;;;4.37;;
30147;SDS011;16960;49.404;8.248;2023-06-10T13:53:16;4.33;;;4.03;;
30147;SDS011;16960;49.404;8.248;2023-06-10T13:55:44;3.77;;;3.57;;
30147;SDS011;16960;49.404;8.248;2023-06-10T13:58:11;4.80;;;4.50;;
30147;SDS011;16960;49.404;8.248;2023-06-10T14:00:38;4.70;;;4.40;;
30147;SDS011;16960;49.404;8.248;2023-06-10T14:03:06;4.40;;;4.10;;
30147;SDS011;16960;49.404;8.248;2023-06-10T14:05:33;4.17;;;3.87;;
30147;SDS011;16960;49.404;8.248;2023-06-10T14:08:00;5.00;;;4.60;;
30147;SDS011;16960;49.404;8.248;2023-06-10T14:10:27;4.63;;;4.33;;
30147;SDS011;16960;49.404;8.248;2023-06-10T14:12:55;4.77;;;4.43;;
30147;SDS011;16960;49.404;8.248;2023-06-10T14:15:22;4.87;;;4.47;;
30147;SDS011;16960;49.404;8.248;2023-06-10T14:17:49;5.27;;;4.87;;
30147;SDS011;16960;49.404;8.248;2023-06-10T14:20:16;4.47;;;4.17;;
30147;SDS011;16960;49.404;8.248;2023-06-10T14:22:42;4.80;;;4.30;;
30147;SDS011;16960;49.404;8.248;2023-06-10T14:25:09;4.33;;;3.93;;
30147;SDS011;16960;49.404;8.248;2023-06-10T14:27:37;5.10;;;4.70;;
30147;SDS011;16960;49.404;8.248;2023-06-10T14:30:06;4.53;;;4.13;;
30147;SDS011;16960;49.404;8.248;2023-06-10T14:32:33;4.70;;;4.40;;
30147;SDS011;16960;49.404;8.248;2023-06-10T14:35:00;5.17;;;4.77;;
30147;SDS011;16960;49.404;8.248;2023-06-10T14:37:28;4.20;;;3.90;;
30147;SDS011;16960;49.404;8.248;2023-06-10T14:39:54;5.60;;;5.20;;
30147;SDS011;16960;49.404;8.248;2023-06-10T14:42:21;4.80;;;4.00;;
30147;SDS011;16960;49.404;8.248;2023-06-10T14:44:49;5.07;;;4.67;;
30147;SDS011;16960;49.404;8.248;2023-06-10T14:47:17;4.23;;;4.03;;